Blue Hill, NE

6:52 PM CDT on September 04, 2015 (GMT -0500)
Bladen | | Change Station
CLOSE
Current Station
Personal Weather Station
Location: Bladen, NE
Elevation: 2005 ft
Nearby Weather Stations

Elev 2005 ft 40.32 °N, 98.60 °W | Updated 31 seconds ago

Partly Cloudy
Partly Cloudy
92.7 °F
Feels Like 94 °F
N
9.0
Wind Variable Wind from SE
Gusts 9.0 mph

Today
High -- | Low -- °F
--% Chance of Precip.
Yesterday
High -- | Low -- °F
Precip. -- in
7:03 AM 8:01 PM
Waning Gibbous, 55% visible
Pressure 29.74 in
Visibility 10.0 miles
Clouds Clear
Heat Index 94 °F
Dew Point 64 °F
Humidity 39%
Rainfall 0.00 in
Snow Depth Not available.
UV 0.0 out of 12
Pollen 8.00 out of 12
Air Quality Not available.
Flu Activity Not available.
METAR KHSI 042253Z AUTO 17012G21KT 10SM CLR 34/17 A2981 RMK AO2 SLP071 T03440172
Pressure 29.74 in
Visibility 10.0 miles
Clouds Clear
Heat Index 94 °F
Dew Point 64 °F
Humidity 39%
Rainfall 0.00 in
Snow Depth Not available.
UV 0.0 out of 12
Pollen 8.00 out of 12
Air Quality Not available.
Flu Activity Not available.
METAR KHSI 042253Z AUTO 17012G21KT 10SM CLR 34/17 A2981 RMK AO2 SLP071 T03440172

10-Day Weather Forecast

×

Almanac

Astronomy

Sep. 04, 2015 Rise Set
Actual Time
Civil Twilight
Nautical Twilight
Astronomical Twilight
Moon
Length of Visible Light
Length of Day
Tomorrow will be .
, % of the Moon is Illuminated

Today's Extremes

State Highs State Lows

Community

WunderPhotos

Upload Photos

1,852,338 photos uploaded!

WunderBlogs® & News

Nearby

Air Quality

  Air Quality AQ Index Pollutant
Not available.

Snow Depth

Station Depth Elevation

Earthquake Activity

City Distance Mag. Time & Date
Minimum magnitude displayed is 2.5.

Coastal Water Temperatures

Place Temperature

Stations

Nearby Weather Stations

Station Location Temp. Windchill Dew Point Humidity Wind Precip. Elev Updated Type